Terminal Aerodrome Forecast
Issued by NWS

Current Version | Previous Version | Graphics & Text | Print | Product List | Glossary On
Versions: 1 2 3 4 5 6 7 8 9 10 11 12 13 14 15 16 17 18
864
FTUS41 KILN 161456 AAA
TAFLUK
TAF AMD
KLUK 161456Z 1615/1712 18005KT P6SM FEW035 SCT250
     FM161900 19005KT P6SM BKN045
     FM170300 17004KT P6SM VCTS BKN050CB=

USA.gov is the U.S. government's official web portal to all federal, state and local government web resources and services.